createdAt,value
2023-09-01T00:00:47.212Z,12.49
2023-09-01T00:03:36.792Z,12.57
2023-09-01T00:06:12.403Z,12.64
2023-09-01T00:08:41.173Z,12.71
2023-09-01T00:11:09.281Z,12.78
2023-09-01T00:13:37.344Z,12.85
2023-09-01T00:16:05.958Z,12.91
2023-09-01T00:18:34.488Z,12.97
2023-09-01T00:21:04.958Z,13.04
2023-09-01T00:23:33.757Z,13.09
2023-09-01T00:26:02.871Z,13.12
2023-09-01T00:28:30.903Z,13.17
2023-09-01T00:31:01.399Z,13.21
2023-09-01T00:33:31.772Z,13.25
2023-09-01T00:36:01.441Z,13.29
2023-09-01T00:38:33.645Z,13.33
2023-09-01T00:41:01.850Z,13.36
2023-09-01T00:43:30.220Z,13.39
2023-09-01T00:45:59.507Z,13.42
2023-09-01T00:48:28.457Z,13.45
2023-09-01T00:50:56.771Z,13.47
2023-09-01T00:53:24.837Z,13.50
2023-09-01T00:55:54.262Z,13.53
2023-09-01T00:58:22.327Z,13.56
2023-09-01T01:00:50.367Z,13.59
2023-09-01T01:03:18.777Z,13.62
2023-09-01T01:06:26.044Z,13.64
2023-09-01T01:09:35.178Z,13.65
2023-09-01T01:12:34.443Z,13.66
2023-09-01T01:15:10.403Z,13.68
2023-09-01T01:17:45.048Z,13.64
2023-09-01T01:20:32.948Z,13.60
2023-09-01T01:23:18.147Z,13.59
2023-09-01T01:25:55.407Z,13.57
2023-09-01T01:28:26.368Z,13.56
2023-09-01T01:30:54.398Z,13.54
2023-09-01T01:33:31.210Z,13.52
2023-09-01T01:36:14.748Z,13.51
2023-09-01T01:38:46.557Z,13.48
2023-09-01T01:41:41.880Z,13.46
2023-09-01T01:44:12.082Z,13.44
2023-09-01T01:46:41.426Z,13.43
2023-09-01T01:49:10.998Z,13.41
2023-09-01T01:51:39.087Z,13.40
2023-09-01T01:54:07.167Z,13.38
2023-09-01T01:56:35.394Z,13.35
2023-09-01T01:59:06.127Z,13.32
2023-09-01T02:01:34.534Z,13.30
2023-09-01T02:04:02.809Z,13.26
2023-09-01T02:09:23.167Z,13.20
2023-09-01T02:11:51.380Z,13.16
2023-09-01T02:14:20.180Z,13.14
2023-09-01T02:16:48.155Z,13.10
2023-09-01T02:19:16.278Z,13.06
2023-09-01T02:21:46.265Z,13.02
2023-09-01T02:24:14.294Z,12.95
2023-09-01T02:26:42.479Z,12.91
2023-09-01T02:29:10.462Z,12.88
2023-09-01T02:31:39.229Z,12.83
2023-09-01T02:34:07.293Z,12.76
2023-09-01T02:36:36.811Z,12.70
2023-09-01T02:39:08.328Z,12.65
2023-09-01T02:41:36.751Z,12.61
2023-09-01T02:44:05.369Z,12.56
2023-09-01T02:46:33.500Z,12.52
2023-09-01T02:49:01.794Z,12.48
2023-09-01T02:51:30.171Z,12.44
2023-09-01T02:53:58.280Z,12.39
2023-09-01T02:56:26.379Z,12.35
2023-09-01T02:58:54.792Z,12.30
2023-09-01T03:01:22.798Z,12.25
2023-09-01T03:03:50.899Z,12.21
2023-09-01T03:06:19.043Z,12.17
2023-09-01T03:08:47.172Z,12.14
2023-09-01T03:11:15.186Z,12.11
2023-09-01T03:13:43.292Z,12.07
2023-09-01T03:16:11.530Z,12.04
2023-09-01T03:18:40.296Z,12.02
2023-09-01T03:21:11.748Z,11.99
2023-09-01T03:23:40.290Z,11.97
2023-09-01T03:26:08.394Z,11.95
2023-09-01T03:28:36.405Z,11.93
2023-09-01T03:31:10.917Z,11.91
2023-09-01T03:33:40.995Z,11.90
2023-09-01T03:36:09.460Z,11.89
2023-09-01T03:38:38.084Z,11.88
2023-09-01T03:41:07.507Z,11.88
2023-09-01T03:43:36.555Z,11.87
2023-09-01T03:46:04.741Z,11.86
2023-09-01T03:48:33.467Z,11.85
2023-09-01T03:51:09.902Z,11.84
2023-09-01T03:53:39.725Z,11.84
2023-09-01T03:56:12.852Z,11.83
2023-09-01T03:58:43.176Z,11.82
2023-09-01T04:01:14.075Z,11.81
2023-09-01T04:03:44.630Z,11.80
2023-09-01T04:06:13.937Z,11.81
2023-09-01T04:08:42.499Z,11.82
2023-09-01T04:11:11.152Z,11.85
2023-09-01T04:13:39.236Z,11.88
2023-09-01T04:16:07.393Z,11.90
2023-09-01T04:18:36.065Z,11.94
2023-09-01T04:21:04.290Z,11.99
2023-09-01T04:23:33.422Z,12.07
2023-09-01T04:26:03.589Z,12.14
2023-09-01T04:28:32.824Z,12.23
2023-09-01T04:31:03.091Z,12.34
2023-09-01T04:33:32.840Z,12.47
2023-09-01T04:36:02.528Z,12.60
2023-09-01T04:38:30.863Z,12.73
2023-09-01T04:41:00.936Z,12.87
2023-09-01T04:43:30.943Z,12.98
2023-09-01T04:45:59.835Z,13.09
2023-09-01T04:48:31.579Z,13.20
2023-09-01T04:51:03.916Z,13.32
2023-09-01T04:53:33.256Z,13.45
2023-09-01T04:56:01.974Z,13.64
2023-09-01T04:58:30.068Z,13.81
2023-09-01T05:00:58.241Z,13.92
2023-09-01T05:03:27.461Z,14.00
2023-09-01T05:05:58.294Z,14.16
2023-09-01T05:08:26.474Z,14.32
2023-09-01T05:10:54.510Z,14.44
2023-09-01T05:13:22.492Z,14.56
2023-09-01T05:15:50.547Z,14.64
2023-09-01T05:18:18.661Z,14.73
2023-09-01T05:20:49.525Z,14.81
2023-09-01T05:23:17.728Z,14.90
2023-09-01T05:25:52.050Z,14.99
2023-09-01T05:28:20.126Z,15.09
2023-09-01T05:30:48.668Z,15.19
2023-09-01T05:33:17.069Z,15.30
2023-09-01T05:35:45.146Z,15.44
2023-09-01T05:38:13.643Z,15.64
2023-09-01T05:40:42.009Z,15.87
2023-09-01T05:43:10.212Z,16.08
2023-09-01T05:45:38.816Z,16.27
2023-09-01T05:48:07.230Z,16.42
2023-09-01T05:50:35.520Z,16.52
2023-09-01T05:53:05.515Z,16.58
2023-09-01T05:55:33.628Z,16.63
2023-09-01T05:58:01.640Z,16.70
2023-09-01T06:00:33.084Z,16.78
2023-09-01T06:03:01.169Z,16.86
2023-09-01T06:05:29.945Z,16.94
2023-09-01T06:07:57.941Z,16.97
2023-09-01T06:10:25.947Z,17.05
2023-09-01T06:12:54.924Z,17.13
2023-09-01T06:15:23.117Z,17.19
2023-09-01T06:17:51.186Z,17.27
2023-09-01T06:20:20.686Z,17.40
2023-09-01T06:22:49.307Z,17.56
2023-09-01T06:25:17.443Z,17.75
2023-09-01T06:27:45.511Z,17.96
2023-09-01T06:30:14.300Z,18.20
2023-09-01T06:32:42.388Z,18.44
2023-09-01T06:35:10.413Z,18.62
2023-09-01T06:37:38.518Z,18.70
2023-09-01T06:40:07.026Z,18.79
2023-09-01T06:42:35.157Z,18.92
2023-09-01T06:45:04.748Z,19.08
2023-09-01T06:47:32.820Z,19.30
2023-09-01T06:50:00.846Z,19.53
2023-09-01T06:52:28.892Z,19.79
2023-09-01T06:54:56.954Z,20.00
2023-09-01T06:57:24.916Z,20.19
2023-09-01T06:59:52.924Z,20.38
2023-09-01T07:02:20.871Z,20.54
2023-09-01T07:04:50.393Z,20.63
2023-09-01T07:07:18.448Z,20.72
2023-09-01T07:09:46.527Z,20.87
2023-09-01T07:12:14.578Z,21.07
2023-09-01T07:14:42.590Z,21.25
2023-09-01T07:17:13.965Z,21.37
2023-09-01T07:19:42.875Z,21.47
2023-09-01T07:22:10.890Z,21.53
2023-09-01T07:24:39.011Z,21.59
2023-09-01T07:27:07.758Z,21.65
2023-09-01T07:29:35.758Z,21.73
2023-09-01T07:32:06.860Z,21.79
2023-09-01T07:34:35.439Z,21.83
2023-09-01T07:37:03.568Z,21.86
2023-09-01T07:39:31.557Z,21.89
2023-09-01T07:41:59.588Z,21.87
2023-09-01T07:44:27.570Z,21.89
2023-09-01T07:46:55.512Z,21.92
2023-09-01T07:49:23.465Z,21.89
2023-09-01T07:51:51.603Z,21.93
2023-09-01T07:54:19.628Z,21.96
2023-09-01T07:56:47.589Z,22.01
2023-09-01T07:59:15.614Z,22.04
2023-09-01T08:01:45.368Z,22.05
2023-09-01T08:04:13.351Z,22.06
2023-09-01T08:06:41.368Z,22.12
2023-09-01T08:09:09.384Z,22.21
2023-09-01T08:11:37.381Z,22.27
2023-09-01T08:14:05.381Z,22.29
2023-09-01T08:16:33.390Z,22.35
2023-09-01T08:19:03.560Z,22.39
2023-09-01T08:21:31.990Z,22.46
2023-09-01T08:23:59.959Z,22.48
2023-09-01T08:26:28.104Z,22.48
2023-09-01T08:28:57.237Z,22.54
2023-09-01T08:31:25.836Z,22.60
2023-09-01T08:33:55.408Z,22.64
2023-09-01T08:36:23.505Z,22.69
2023-09-01T08:38:51.567Z,22.73
2023-09-01T08:41:20.649Z,22.72
2023-09-01T08:43:51.969Z,22.76
2023-09-01T08:46:23.009Z,22.80
2023-09-01T08:48:51.293Z,22.81
2023-09-01T08:51:21.552Z,22.78
2023-09-01T08:53:51.297Z,22.69
2023-09-01T08:56:19.296Z,22.72
2023-09-01T08:58:47.566Z,22.71
2023-09-01T09:01:17.296Z,22.61
2023-09-01T09:03:45.498Z,22.57
2023-09-01T09:06:14.805Z,22.55
2023-09-01T09:08:43.276Z,22.61
2023-09-01T09:11:16.912Z,22.62
2023-09-01T09:13:51.232Z,22.55
2023-09-01T09:16:25.240Z,22.47
2023-09-01T09:18:53.399Z,22.42
2023-09-01T09:21:30.496Z,22.36
2023-09-01T09:26:32.773Z,22.32
2023-09-01T09:29:10.005Z,22.39
2023-09-01T09:31:41.087Z,22.49
2023-09-01T09:34:19.573Z,22.58
2023-09-01T09:36:48.983Z,22.74
2023-09-01T09:39:28.512Z,22.78
2023-09-01T09:41:58.278Z,22.80
2023-09-01T09:44:30.954Z,22.80
2023-09-01T09:46:59.268Z,22.77
2023-09-01T09:49:32.246Z,22.79
2023-09-01T09:52:01.915Z,22.88
2023-09-01T09:54:30.916Z,22.91
2023-09-01T09:57:01.304Z,22.82
2023-09-01T09:59:41.434Z,22.80
2023-09-01T10:02:25.147Z,22.77
2023-09-01T10:04:54.654Z,22.88
2023-09-01T10:07:24.169Z,22.79
2023-09-01T10:09:53.829Z,22.84
2023-09-01T10:12:22.495Z,23.01
2023-09-01T10:14:52.426Z,23.01
2023-09-01T10:17:22.906Z,22.95
2023-09-01T10:19:51.021Z,22.81
2023-09-01T10:22:19.635Z,22.80
2023-09-01T10:25:27.389Z,22.98
2023-09-01T10:28:15.339Z,23.31
2023-09-01T10:30:45.708Z,23.61
2023-09-01T10:33:26.206Z,23.76
2023-09-01T10:35:58.669Z,23.77
2023-09-01T10:38:35.707Z,23.79
2023-09-01T10:41:04.564Z,23.81
2023-09-01T10:43:32.572Z,23.87
2023-09-01T10:46:29.826Z,24.01
2023-09-01T10:49:01.903Z,24.10
2023-09-01T10:51:35.478Z,24.18
2023-09-01T10:54:23.684Z,24.25
2023-09-01T10:57:00.413Z,24.22
2023-09-01T10:59:37.097Z,24.35
2023-09-01T11:02:18.737Z,24.52
2023-09-01T11:04:47.903Z,24.65
2023-09-01T11:07:16.016Z,24.84
2023-09-01T11:09:43.941Z,25.08
2023-09-01T11:12:13.425Z,25.28
2023-09-01T11:15:00.782Z,25.42
2023-09-01T11:17:45.013Z,25.57
2023-09-01T11:20:17.745Z,25.79
2023-09-01T11:22:46.648Z,25.99
2023-09-01T11:25:16.696Z,26.19
2023-09-01T11:27:50.900Z,26.34
2023-09-01T11:30:20.818Z,26.45
2023-09-01T11:32:50.253Z,26.49
2023-09-01T11:35:30.014Z,26.48
2023-09-01T11:37:59.143Z,26.43
2023-09-01T11:40:29.317Z,26.43
2023-09-01T11:42:57.786Z,26.45
2023-09-01T11:45:25.790Z,26.49
2023-09-01T11:47:55.128Z,26.48
2023-09-01T11:50:23.631Z,26.53
2023-09-01T11:52:53.205Z,26.66
2023-09-01T11:55:35.981Z,26.79
2023-09-01T11:58:04.801Z,26.85
2023-09-01T12:00:40.116Z,26.90
2023-09-01T12:03:09.545Z,27.01
2023-09-01T12:05:40.768Z,27.03
2023-09-01T12:08:11.168Z,26.95
2023-09-01T12:10:39.363Z,26.77
2023-09-01T12:13:12.809Z,26.75
2023-09-01T12:16:01.056Z,26.80
2023-09-01T12:18:37.563Z,26.82
2023-09-01T12:21:08.744Z,26.78
2023-09-01T12:23:49.095Z,26.74
2023-09-01T12:26:17.517Z,26.64
2023-09-01T12:28:45.608Z,26.52
2023-09-01T12:31:15.725Z,26.49
2023-09-01T12:33:43.989Z,26.47
2023-09-01T12:36:14.099Z,26.49
2023-09-01T12:38:45.201Z,26.54
2023-09-01T12:41:13.436Z,26.62
2023-09-01T12:43:43.641Z,26.66
2023-09-01T12:46:11.647Z,26.75
2023-09-01T12:48:39.730Z,26.79
2023-09-01T12:51:07.880Z,26.86
2023-09-01T12:53:35.969Z,26.95
2023-09-01T12:56:04.141Z,27.01
2023-09-01T12:58:32.796Z,27.06
2023-09-01T13:01:07.269Z,27.08
2023-09-01T13:03:35.534Z,27.15
2023-09-01T13:06:11.554Z,27.20
2023-09-01T13:08:39.684Z,27.13
2023-09-01T13:11:11.585Z,27.00
2023-09-01T13:13:40.586Z,26.91
2023-09-01T13:16:13.121Z,26.77
2023-09-01T13:18:41.325Z,26.62
2023-09-01T13:21:10.393Z,26.56
2023-09-01T13:23:38.448Z,26.51
2023-09-01T13:26:11.478Z,26.45
2023-09-01T13:28:39.474Z,26.41
2023-09-01T13:31:07.456Z,26.37
2023-09-01T13:33:40.617Z,26.27
2023-09-01T13:36:09.238Z,26.14
2023-09-01T13:38:39.944Z,25.96
2023-09-01T13:41:08.735Z,25.85
2023-09-01T13:43:36.977Z,25.83
2023-09-01T13:46:24.159Z,25.79
2023-09-01T13:48:57.253Z,25.77
2023-09-01T13:51:29.852Z,25.87
2023-09-01T13:53:58.140Z,25.91
2023-09-01T13:56:26.344Z,25.87
2023-09-01T13:58:54.387Z,25.79
2023-09-01T14:01:22.421Z,25.61
2023-09-01T14:03:50.499Z,25.48
2023-09-01T14:06:18.537Z,25.44
2023-09-01T14:08:46.578Z,25.48
2023-09-01T14:11:14.947Z,25.56
2023-09-01T14:13:42.961Z,25.57
2023-09-01T14:16:12.490Z,25.53
2023-09-01T14:18:43.150Z,25.44
2023-09-01T14:21:11.363Z,25.36
2023-09-01T14:23:39.510Z,25.28
2023-09-01T14:26:07.686Z,25.18
2023-09-01T14:28:35.826Z,25.03
2023-09-01T14:31:04.414Z,24.96
2023-09-01T14:33:41.846Z,24.95
2023-09-01T14:36:16.055Z,25.03
2023-09-01T14:38:44.137Z,25.10
2023-09-01T14:41:19.391Z,25.17
2023-09-01T14:43:48.317Z,25.20
2023-09-01T14:46:19.020Z,25.17
2023-09-01T14:48:47.826Z,25.10
2023-09-01T14:51:16.642Z,25.06
2023-09-01T14:53:47.454Z,25.04
2023-09-01T14:56:17.849Z,24.99
2023-09-01T14:58:46.125Z,24.88
2023-09-01T15:01:14.143Z,24.82
2023-09-01T15:03:42.257Z,24.73
2023-09-01T15:06:10.516Z,24.62
2023-09-01T15:08:38.542Z,24.48
2023-09-01T15:11:06.711Z,24.36
2023-09-01T15:13:34.788Z,24.28
2023-09-01T15:16:02.853Z,24.16
2023-09-01T15:18:30.930Z,24.07
2023-09-01T15:21:06.693Z,24.00
2023-09-01T15:23:35.879Z,23.93
2023-09-01T15:26:04.142Z,23.83
2023-09-01T15:28:32.285Z,23.79
2023-09-01T15:31:00.339Z,23.77
2023-09-01T15:33:29.124Z,23.76
2023-09-01T15:36:00.477Z,23.76
2023-09-01T15:38:30.125Z,23.73
2023-09-01T15:41:02.184Z,23.72
2023-09-01T15:43:30.597Z,23.67
2023-09-01T15:45:59.392Z,23.59
2023-09-01T15:48:28.545Z,23.54
2023-09-01T15:50:58.545Z,23.44
2023-09-01T15:53:28.680Z,23.31
2023-09-01T15:55:58.697Z,23.23
2023-09-01T15:58:26.813Z,23.16
2023-09-01T16:01:03.609Z,23.07
2023-09-01T16:03:46.522Z,22.99
2023-09-01T16:06:21.684Z,22.91
2023-09-01T16:08:49.835Z,22.82
2023-09-01T16:11:17.830Z,22.72
2023-09-01T16:13:47.925Z,22.61
2023-09-01T16:16:15.958Z,22.50
2023-09-01T16:18:44.081Z,22.40
2023-09-01T16:21:12.093Z,22.32
2023-09-01T16:23:40.080Z,22.26
2023-09-01T16:26:08.088Z,22.15
2023-09-01T16:28:36.167Z,22.06
2023-09-01T16:31:04.459Z,22.00
2023-09-01T16:33:32.500Z,21.90
2023-09-01T16:36:02.007Z,21.80
2023-09-01T16:38:30.726Z,21.72
2023-09-01T16:41:00.132Z,21.60
2023-09-01T16:43:28.318Z,21.51
2023-09-01T16:45:56.549Z,21.42
2023-09-01T16:48:25.202Z,21.35
2023-09-01T16:50:53.218Z,21.26
2023-09-01T16:53:21.298Z,21.18
2023-09-01T16:55:49.795Z,21.09
2023-09-01T16:58:17.856Z,21.01
2023-09-01T17:00:47.083Z,20.91
2023-09-01T17:03:15.357Z,20.81
2023-09-01T17:05:46.523Z,20.74
2023-09-01T17:08:14.736Z,20.65
2023-09-01T17:10:42.837Z,20.56
2023-09-01T17:13:10.818Z,20.49
2023-09-01T17:15:40.440Z,20.41
2023-09-01T17:18:09.051Z,20.33
2023-09-01T17:20:52.604Z,20.25
2023-09-01T17:23:20.615Z,20.16
2023-09-01T17:25:48.572Z,20.08
2023-09-01T17:28:16.573Z,19.98
2023-09-01T17:30:44.722Z,19.90
2023-09-01T17:33:12.835Z,19.83
2023-09-01T17:35:40.825Z,19.76
2023-09-01T17:38:08.809Z,19.69
2023-09-01T17:40:37.726Z,19.63
2023-09-01T17:43:05.737Z,19.57
2023-09-01T17:45:33.742Z,19.53
2023-09-01T17:48:01.866Z,19.49
2023-09-01T17:50:29.962Z,19.43
2023-09-01T17:52:58.013Z,19.38
2023-09-01T17:55:29.234Z,19.32
2023-09-01T17:57:57.277Z,19.26
2023-09-01T18:00:25.287Z,19.22
2023-09-01T18:02:56.708Z,19.17
2023-09-01T18:05:25.081Z,19.13
2023-09-01T18:07:53.834Z,19.09
2023-09-01T18:10:21.863Z,19.06
2023-09-01T18:12:49.922Z,19.01
2023-09-01T18:15:19.032Z,18.97
2023-09-01T18:17:47.195Z,18.94
2023-09-01T18:20:19.832Z,18.91
2023-09-01T18:22:50.672Z,18.87
2023-09-01T18:25:19.141Z,18.85
2023-09-01T18:27:48.711Z,18.83
2023-09-01T18:30:17.913Z,18.81
2023-09-01T18:32:48.836Z,18.80
2023-09-01T18:35:20.172Z,18.79
2023-09-01T18:37:48.252Z,18.79
2023-09-01T18:40:23.938Z,18.84
2023-09-01T18:42:53.127Z,18.86
2023-09-01T18:45:27.326Z,18.83
2023-09-01T18:47:55.980Z,18.81
2023-09-01T18:50:24.173Z,18.79
2023-09-01T18:52:57.480Z,18.78
2023-09-01T18:55:25.661Z,18.76
2023-09-01T18:57:53.727Z,18.75
2023-09-01T19:00:25.028Z,18.74
2023-09-01T19:02:53.805Z,18.73
2023-09-01T19:05:33.189Z,18.71
2023-09-01T19:08:13.192Z,18.69
2023-09-01T19:10:42.141Z,18.67
2023-09-01T19:13:11.594Z,18.65
2023-09-01T19:15:40.616Z,18.64
2023-09-01T19:18:11.361Z,18.62
2023-09-01T19:20:42.603Z,18.60
2023-09-01T19:23:23.707Z,18.58
2023-09-01T19:25:51.808Z,18.57
2023-09-01T19:28:35.326Z,18.54
2023-09-01T19:31:06.286Z,18.53
2023-09-01T19:33:36.733Z,18.52
2023-09-01T19:36:05.263Z,18.51
2023-09-01T19:38:33.423Z,18.50
2023-09-01T19:41:01.922Z,18.51
2023-09-01T19:43:30.756Z,18.50
2023-09-01T19:46:00.640Z,18.50
2023-09-01T19:48:32.858Z,18.50
2023-09-01T19:51:02.166Z,18.50
2023-09-01T19:53:31.706Z,18.49
2023-09-01T19:56:23.218Z,18.48
2023-09-01T19:58:57.059Z,18.47
2023-09-01T20:01:28.524Z,18.46
2023-09-01T20:03:57.298Z,18.44
2023-09-01T20:06:27.393Z,18.41
2023-09-01T20:09:08.947Z,18.38
2023-09-01T20:11:37.031Z,18.36
2023-09-01T20:14:08.537Z,18.35
2023-09-01T20:16:41.720Z,18.33
2023-09-01T20:19:15.022Z,18.31
2023-09-01T20:21:43.201Z,18.30
2023-09-01T20:24:11.187Z,18.27
2023-09-01T20:26:39.219Z,18.25
2023-09-01T20:29:07.258Z,18.24
2023-09-01T20:31:37.508Z,18.21
2023-09-01T20:34:09.383Z,18.19
2023-09-01T20:36:37.675Z,18.16
2023-09-01T20:39:07.285Z,18.14
2023-09-01T20:41:35.455Z,18.11
2023-09-01T20:44:04.021Z,18.09
2023-09-01T20:46:32.121Z,18.07
2023-09-01T20:49:00.551Z,18.04
2023-09-01T20:51:28.592Z,18.02
2023-09-01T20:53:56.618Z,18.00
2023-09-01T20:56:24.631Z,17.98
2023-09-01T20:58:52.609Z,17.96
2023-09-01T21:01:20.731Z,17.95
2023-09-01T21:03:48.878Z,17.93
2023-09-01T21:06:16.930Z,17.91
2023-09-01T21:08:44.927Z,17.89
2023-09-01T21:11:14.396Z,17.87
2023-09-01T21:13:42.803Z,17.86
2023-09-01T21:16:10.900Z,17.83
2023-09-01T21:18:39.038Z,17.83
2023-09-01T21:21:07.091Z,17.83
2023-09-01T21:23:35.147Z,17.84
2023-09-01T21:26:03.438Z,17.84
2023-09-01T21:28:33.072Z,17.80
2023-09-01T21:31:01.428Z,17.74
2023-09-01T21:33:29.461Z,17.68
2023-09-01T21:35:57.589Z,17.63
2023-09-01T21:38:25.741Z,17.58
2023-09-01T21:40:53.802Z,17.57
2023-09-01T21:43:22.124Z,17.56
2023-09-01T21:45:50.232Z,17.55
2023-09-01T21:48:18.249Z,17.54
2023-09-01T21:50:46.215Z,17.53
2023-09-01T21:53:14.310Z,17.53
2023-09-01T21:55:42.663Z,17.53
2023-09-01T21:58:10.864Z,17.53
2023-09-01T22:00:38.916Z,17.52
2023-09-01T22:03:06.987Z,17.51
2023-09-01T22:05:35.113Z,17.49
2023-09-01T22:08:04.439Z,17.46
2023-09-01T22:10:32.539Z,17.42
2023-09-01T22:13:00.667Z,17.40
2023-09-01T22:15:28.726Z,17.38
2023-09-01T22:17:57.998Z,17.36
2023-09-01T22:20:26.572Z,17.35
2023-09-01T22:22:54.536Z,17.34
2023-09-01T22:25:22.551Z,17.34
2023-09-01T22:27:50.682Z,17.31
2023-09-01T22:30:19.239Z,17.27
2023-09-01T22:32:47.385Z,17.24
2023-09-01T22:35:15.481Z,17.22
2023-09-01T22:37:43.665Z,17.20
2023-09-01T22:40:12.057Z,17.19
2023-09-01T22:42:42.010Z,17.19
2023-09-01T22:45:11.858Z,17.19
2023-09-01T22:47:39.860Z,17.20
2023-09-01T22:50:08.315Z,17.20
2023-09-01T22:52:36.279Z,17.19
2023-09-01T22:55:04.930Z,17.17
2023-09-01T22:57:32.898Z,17.15
2023-09-01T23:00:00.898Z,17.14
2023-09-01T23:02:28.956Z,17.11
2023-09-01T23:04:56.968Z,17.10
2023-09-01T23:07:24.941Z,17.10
2023-09-01T23:09:53.030Z,17.10
2023-09-01T23:12:21.084Z,17.10
2023-09-01T23:14:49.141Z,17.10
2023-09-01T23:17:17.153Z,17.08
2023-09-01T23:19:45.157Z,17.07
2023-09-01T23:22:13.128Z,17.07
2023-09-01T23:24:41.074Z,17.07
2023-09-01T23:27:09.025Z,17.07
2023-09-01T23:29:36.990Z,17.09
2023-09-01T23:32:08.953Z,17.08
2023-09-01T23:34:37.158Z,17.08
2023-09-01T23:37:05.413Z,17.08
2023-09-01T23:39:34.695Z,17.08
2023-09-01T23:42:03.706Z,17.07
2023-09-01T23:44:31.754Z,17.06
2023-09-01T23:46:59.802Z,17.06
2023-09-01T23:49:27.847Z,17.06
2023-09-01T23:51:55.862Z,17.06
2023-09-01T23:54:23.849Z,17.05
2023-09-01T23:56:51.831Z,17.05
2023-09-01T23:59:20.438Z,17.04
